sensor_id;sensor_type;location;lat;lon;timestamp;P1;durP1;ratioP1;P2;durP2;ratioP2
22673;SDS011;11504;43.334;21.918;2023-04-25T00:00:17;7.0;;;6.0;;
22673;SDS011;11504;43.334;21.918;2023-04-25T00:04:54;6.0;;;6.0;;
22673;SDS011;11504;43.334;21.918;2023-04-25T00:09:31;6.0;;;6.0;;
22673;SDS011;11504;43.334;21.918;2023-04-25T00:14:08;6.0;;;6.0;;
22673;SDS011;11504;43.334;21.918;2023-04-25T00:18:45;6.0;;;6.0;;
22673;SDS011;11504;43.334;21.918;2023-04-25T00:23:21;6.0;;;6.0;;
22673;SDS011;11504;43.334;21.918;2023-04-25T00:27:58;6.0;;;6.0;;
22673;SDS011;11504;43.334;21.918;2023-04-25T00:32:35;6.0;;;6.0;;
22673;SDS011;11504;43.334;21.918;2023-04-25T00:37:12;6.0;;;6.0;;
22673;SDS011;11504;43.334;21.918;2023-04-25T00:41:50;6.0;;;6.0;;
22673;SDS011;11504;43.334;21.918;2023-04-25T00:46:31;6.0;;;6.0;;
22673;SDS011;11504;43.334;21.918;2023-04-25T00:51:15;6.0;;;6.0;;
22673;SDS011;11504;43.334;21.918;2023-04-25T00:56:01;7.0;;;7.0;;
22673;SDS011;11504;43.334;21.918;2023-04-25T01:00:40;7.0;;;7.0;;
22673;SDS011;11504;43.334;21.918;2023-04-25T01:05:24;7.0;;;6.0;;
22673;SDS011;11504;43.334;21.918;2023-04-25T01:10:02;7.0;;;6.0;;
22673;SDS011;11504;43.334;21.918;2023-04-25T01:14:44;7.0;;;6.0;;
22673;SDS011;11504;43.334;21.918;2023-04-25T01:19:23;7.0;;;6.0;;
22673;SDS011;11504;43.334;21.918;2023-04-25T01:24:02;6.0;;;5.0;;
22673;SDS011;11504;43.334;21.918;2023-04-25T01:28:42;6.0;;;5.0;;
22673;SDS011;11504;43.334;21.918;2023-04-25T01:33:21;5.0;;;4.0;;
22673;SDS011;11504;43.334;21.918;2023-04-25T01:37:59;5.0;;;4.0;;
22673;SDS011;11504;43.334;21.918;2023-04-25T01:42:40;6.0;;;6.0;;
22673;SDS011;11504;43.334;21.918;2023-04-25T01:47:20;6.0;;;6.0;;
22673;SDS011;11504;43.334;21.918;2023-04-25T01:51:57;7.0;;;7.0;;
22673;SDS011;11504;43.334;21.918;2023-04-25T01:56:37;7.0;;;7.0;;
22673;SDS011;11504;43.334;21.918;2023-04-25T02:01:15;7.0;;;7.0;;
22673;SDS011;11504;43.334;21.918;2023-04-25T02:05:52;6.0;;;6.0;;
22673;SDS011;11504;43.334;21.918;2023-04-25T02:10:29;6.0;;;6.0;;
22673;SDS011;11504;43.334;21.918;2023-04-25T02:15:07;6.0;;;6.0;;
22673;SDS011;11504;43.334;21.918;2023-04-25T02:19:45;6.0;;;6.0;;
22673;SDS011;11504;43.334;21.918;2023-04-25T02:24:22;7.0;;;6.0;;
22673;SDS011;11504;43.334;21.918;2023-04-25T02:28:59;7.0;;;6.0;;
22673;SDS011;11504;43.334;21.918;2023-04-25T02:33:36;8.0;;;7.0;;
22673;SDS011;11504;43.334;21.918;2023-04-25T02:38:13;8.0;;;7.0;;
22673;SDS011;11504;43.334;21.918;2023-04-25T02:42:49;9.0;;;8.0;;
22673;SDS011;11504;43.334;21.918;2023-04-25T02:47:26;9.0;;;8.0;;
22673;SDS011;11504;43.334;21.918;2023-04-25T02:52:03;10.0;;;9.0;;
22673;SDS011;11504;43.334;21.918;2023-04-25T02:56:40;10.0;;;9.0;;
22673;SDS011;11504;43.334;21.918;2023-04-25T03:01:16;10.0;;;9.0;;
22673;SDS011;11504;43.334;21.918;2023-04-25T03:05:53;8.0;;;8.0;;
22673;SDS011;11504;43.334;21.918;2023-04-25T03:10:29;8.0;;;8.0;;
22673;SDS011;11504;43.334;21.918;2023-04-25T03:15:07;7.0;;;6.0;;
22673;SDS011;11504;43.334;21.918;2023-04-25T03:19:46;7.0;;;6.0;;
22673;SDS011;11504;43.334;21.918;2023-04-25T03:24:23;7.0;;;6.0;;
22673;SDS011;11504;43.334;21.918;2023-04-25T03:29:00;7.0;;;6.0;;
22673;SDS011;11504;43.334;21.918;2023-04-25T03:33:38;7.0;;;7.0;;
22673;SDS011;11504;43.334;21.918;2023-04-25T03:38:15;7.0;;;7.0;;
22673;SDS011;11504;43.334;21.918;2023-04-25T03:42:53;8.0;;;7.0;;
22673;SDS011;11504;43.334;21.918;2023-04-25T03:47:30;8.0;;;7.0;;
22673;SDS011;11504;43.334;21.918;2023-04-25T03:52:07;8.0;;;7.0;;
22673;SDS011;11504;43.334;21.918;2023-04-25T03:56:44;8.0;;;7.0;;
22673;SDS011;11504;43.334;21.918;2023-04-25T04:01:21;8.0;;;7.0;;
22673;SDS011;11504;43.334;21.918;2023-04-25T04:05:57;8.0;;;8.0;;
22673;SDS011;11504;43.334;21.918;2023-04-25T04:10:34;8.0;;;8.0;;
22673;SDS011;11504;43.334;21.918;2023-04-25T04:15:11;9.0;;;9.0;;
22673;SDS011;11504;43.334;21.918;2023-04-25T04:19:48;9.0;;;9.0;;
22673;SDS011;11504;43.334;21.918;2023-04-25T04:24:24;10.0;;;10.0;;
22673;SDS011;11504;43.334;21.918;2023-04-25T04:29:01;10.0;;;10.0;;
22673;SDS011;11504;43.334;21.918;2023-04-25T04:33:37;12.0;;;11.0;;
22673;SDS011;11504;43.334;21.918;2023-04-25T04:38:14;12.0;;;11.0;;
22673;SDS011;11504;43.334;21.918;2023-04-25T04:42:50;12.0;;;10.0;;
22673;SDS011;11504;43.334;21.918;2023-04-25T04:47:27;12.0;;;10.0;;
22673;SDS011;11504;43.334;21.918;2023-04-25T04:52:04;11.0;;;10.0;;
22673;SDS011;11504;43.334;21.918;2023-04-25T04:56:40;11.0;;;10.0;;
22673;SDS011;11504;43.334;21.918;2023-04-25T05:01:17;11.0;;;10.0;;
22673;SDS011;11504;43.334;21.918;2023-04-25T05:05:54;12.0;;;10.0;;
22673;SDS011;11504;43.334;21.918;2023-04-25T05:10:31;12.0;;;10.0;;
22673;SDS011;11504;43.334;21.918;2023-04-25T05:15:09;12.0;;;11.0;;
22673;SDS011;11504;43.334;21.918;2023-04-25T05:19:46;12.0;;;11.0;;
22673;SDS011;11504;43.334;21.918;2023-04-25T05:24:23;12.0;;;11.0;;
22673;SDS011;11504;43.334;21.918;2023-04-25T05:29:00;12.0;;;11.0;;
22673;SDS011;11504;43.334;21.918;2023-04-25T05:33:36;12.0;;;11.0;;
22673;SDS011;11504;43.334;21.918;2023-04-25T05:38:13;12.0;;;11.0;;
22673;SDS011;11504;43.334;21.918;2023-04-25T05:42:50;12.0;;;10.0;;
22673;SDS011;11504;43.334;21.918;2023-04-25T05:47:26;12.0;;;10.0;;
22673;SDS011;11504;43.334;21.918;2023-04-25T05:52:04;11.0;;;8.0;;
22673;SDS011;11504;43.334;21.918;2023-04-25T05:56:41;11.0;;;8.0;;
22673;SDS011;11504;43.334;21.918;2023-04-25T06:01:18;11.0;;;8.0;;
22673;SDS011;11504;43.334;21.918;2023-04-25T06:05:57;14.0;;;12.0;;
22673;SDS011;11504;43.334;21.918;2023-04-25T06:10:34;14.0;;;12.0;;
22673;SDS011;11504;43.334;21.918;2023-04-25T06:15:13;18.0;;;17.0;;
22673;SDS011;11504;43.334;21.918;2023-04-25T06:19:50;18.0;;;17.0;;
22673;SDS011;11504;43.334;21.918;2023-04-25T06:24:27;16.0;;;16.0;;
22673;SDS011;11504;43.334;21.918;2023-04-25T06:29:05;16.0;;;16.0;;
22673;SDS011;11504;43.334;21.918;2023-04-25T06:33:41;15.0;;;14.0;;
22673;SDS011;11504;43.334;21.918;2023-04-25T06:38:19;15.0;;;14.0;;
22673;SDS011;11504;43.334;21.918;2023-04-25T06:42:55;16.0;;;14.0;;
22673;SDS011;11504;43.334;21.918;2023-04-25T06:47:32;16.0;;;14.0;;
22673;SDS011;11504;43.334;21.918;2023-04-25T06:52:08;16.0;;;15.0;;
22673;SDS011;11504;43.334;21.918;2023-04-25T06:56:45;16.0;;;15.0;;
22673;SDS011;11504;43.334;21.918;2023-04-25T07:01:21;16.0;;;15.0;;
22673;SDS011;11504;43.334;21.918;2023-04-25T07:05:58;14.0;;;14.0;;
22673;SDS011;11504;43.334;21.918;2023-04-25T07:10:35;14.0;;;14.0;;
22673;SDS011;11504;43.334;21.918;2023-04-25T07:15:11;13.0;;;13.0;;
22673;SDS011;11504;43.334;21.918;2023-04-25T07:19:48;13.0;;;13.0;;
22673;SDS011;11504;43.334;21.918;2023-04-25T07:24:24;12.0;;;11.0;;
22673;SDS011;11504;43.334;21.918;2023-04-25T07:29:01;12.0;;;11.0;;
22673;SDS011;11504;43.334;21.918;2023-04-25T07:33:38;10.0;;;9.0;;
22673;SDS011;11504;43.334;21.918;2023-04-25T07:38:14;10.0;;;9.0;;
22673;SDS011;11504;43.334;21.918;2023-04-25T07:42:51;10.0;;;10.0;;
22673;SDS011;11504;43.334;21.918;2023-04-25T07:47:28;10.0;;;10.0;;
22673;SDS011;11504;43.334;21.918;2023-04-25T07:52:05;10.0;;;10.0;;
22673;SDS011;11504;43.334;21.918;2023-04-25T07:56:42;10.0;;;10.0;;
22673;SDS011;11504;43.334;21.918;2023-04-25T08:01:18;10.0;;;10.0;;
22673;SDS011;11504;43.334;21.918;2023-04-25T08:05:55;10.0;;;9.0;;
22673;SDS011;11504;43.334;21.918;2023-04-25T08:10:31;10.0;;;9.0;;
22673;SDS011;11504;43.334;21.918;2023-04-25T08:15:09;9.0;;;8.0;;
22673;SDS011;11504;43.334;21.918;2023-04-25T08:19:47;9.0;;;8.0;;
22673;SDS011;11504;43.334;21.918;2023-04-25T08:24:24;8.0;;;6.0;;
22673;SDS011;11504;43.334;21.918;2023-04-25T08:29:01;8.0;;;6.0;;
22673;SDS011;11504;43.334;21.918;2023-04-25T08:33:38;6.0;;;5.0;;
22673;SDS011;11504;43.334;21.918;2023-04-25T08:38:14;6.0;;;5.0;;
22673;SDS011;11504;43.334;21.918;2023-04-25T08:42:53;7.0;;;6.0;;
22673;SDS011;11504;43.334;21.918;2023-04-25T08:47:39;7.0;;;6.0;;
22673;SDS011;11504;43.334;21.918;2023-04-25T08:52:23;8.0;;;8.0;;
22673;SDS011;11504;43.334;21.918;2023-04-25T08:57:21;8.0;;;8.0;;
22673;SDS011;11504;43.334;21.918;2023-04-25T09:02:03;8.0;;;8.0;;
22673;SDS011;11504;43.334;21.918;2023-04-25T09:06:40;9.0;;;8.0;;
22673;SDS011;11504;43.334;21.918;2023-04-25T09:11:18;9.0;;;8.0;;
22673;SDS011;11504;43.334;21.918;2023-04-25T09:15:57;10.0;;;9.0;;
22673;SDS011;11504;43.334;21.918;2023-04-25T09:20:41;10.0;;;9.0;;
22673;SDS011;11504;43.334;21.918;2023-04-25T09:25:20;10.0;;;9.0;;
22673;SDS011;11504;43.334;21.918;2023-04-25T09:29:58;10.0;;;9.0;;
22673;SDS011;11504;43.334;21.918;2023-04-25T09:34:39;9.0;;;9.0;;
22673;SDS011;11504;43.334;21.918;2023-04-25T09:39:21;9.0;;;9.0;;
22673;SDS011;11504;43.334;21.918;2023-04-25T09:43:58;8.0;;;8.0;;
22673;SDS011;11504;43.334;21.918;2023-04-25T09:48:35;8.0;;;8.0;;
22673;SDS011;11504;43.334;21.918;2023-04-25T09:53:12;8.0;;;7.0;;
22673;SDS011;11504;43.334;21.918;2023-04-25T09:57:54;8.0;;;7.0;;
22673;SDS011;11504;43.334;21.918;2023-04-25T10:02:46;10.0;;;10.0;;
22673;SDS011;11504;43.334;21.918;2023-04-25T10:07:30;10.0;;;10.0;;
22673;SDS011;11504;43.334;21.918;2023-04-25T10:12:13;13.0;;;13.0;;
22673;SDS011;11504;43.334;21.918;2023-04-25T10:16:53;13.0;;;13.0;;
22673;SDS011;11504;43.334;21.918;2023-04-25T10:21:36;13.0;;;13.0;;
22673;SDS011;11504;43.334;21.918;2023-04-25T10:26:39;10.0;;;10.0;;
22673;SDS011;11504;43.334;21.918;2023-04-25T10:31:17;10.0;;;10.0;;
22673;SDS011;11504;43.334;21.918;2023-04-25T10:35:58;8.0;;;8.0;;
22673;SDS011;11504;43.334;21.918;2023-04-25T10:41:03;8.0;;;8.0;;
22673;SDS011;11504;43.334;21.918;2023-04-25T10:45:51;8.0;;;8.0;;
22673;SDS011;11504;43.334;21.918;2023-04-25T10:50:37;8.0;;;8.0;;
22673;SDS011;11504;43.334;21.918;2023-04-25T10:55:14;8.0;;;7.0;;
22673;SDS011;11504;43.334;21.918;2023-04-25T10:59:51;8.0;;;7.0;;
22673;SDS011;11504;43.334;21.918;2023-04-25T11:04:30;10.0;;;9.0;;
22673;SDS011;11504;43.334;21.918;2023-04-25T11:09:12;10.0;;;9.0;;
22673;SDS011;11504;43.334;21.918;2023-04-25T11:13:50;12.0;;;11.0;;
22673;SDS011;11504;43.334;21.918;2023-04-25T11:18:26;12.0;;;11.0;;
22673;SDS011;11504;43.334;21.918;2023-04-25T11:23:04;14.0;;;13.0;;
22673;SDS011;11504;43.334;21.918;2023-04-25T11:27:50;14.0;;;13.0;;
22673;SDS011;11504;43.334;21.918;2023-04-25T11:32:34;16.0;;;15.0;;
22673;SDS011;11504;43.334;21.918;2023-04-25T11:37:12;16.0;;;15.0;;
22673;SDS011;11504;43.334;21.918;2023-04-25T11:41:51;16.0;;;15.0;;
22673;SDS011;11504;43.334;21.918;2023-04-25T11:46:33;17.0;;;14.0;;
22673;SDS011;11504;43.334;21.918;2023-04-25T11:51:11;17.0;;;14.0;;
22673;SDS011;11504;43.334;21.918;2023-04-25T11:55:48;18.0;;;14.0;;
22673;SDS011;11504;43.334;21.918;2023-04-25T12:00:25;18.0;;;14.0;;
22673;SDS011;11504;43.334;21.918;2023-04-25T12:05:06;16.0;;;14.0;;
22673;SDS011;11504;43.334;21.918;2023-04-25T12:09:51;16.0;;;14.0;;
22673;SDS011;11504;43.334;21.918;2023-04-25T12:14:31;14.0;;;14.0;;
22673;SDS011;11504;43.334;21.918;2023-04-25T12:19:13;14.0;;;14.0;;
22673;SDS011;11504;43.334;21.918;2023-04-25T12:23:54;14.0;;;14.0;;
22673;SDS011;11504;43.334;21.918;2023-04-25T12:28:32;14.0;;;14.0;;
22673;SDS011;11504;43.334;21.918;2023-04-25T12:33:09;14.0;;;13.0;;
22673;SDS011;11504;43.334;21.918;2023-04-25T12:37:45;14.0;;;13.0;;
22673;SDS011;11504;43.334;21.918;2023-04-25T12:42:21;12.0;;;12.0;;
22673;SDS011;11504;43.334;21.918;2023-04-25T12:46:58;12.0;;;12.0;;
22673;SDS011;11504;43.334;21.918;2023-04-25T12:51:36;12.0;;;12.0;;
22673;SDS011;11504;43.334;21.918;2023-04-25T12:56:13;11.0;;;10.0;;
22673;SDS011;11504;43.334;21.918;2023-04-25T13:00:49;11.0;;;10.0;;
22673;SDS011;11504;43.334;21.918;2023-04-25T13:05:26;12.0;;;10.0;;
22673;SDS011;11504;43.334;21.918;2023-04-25T13:10:04;12.0;;;10.0;;
22673;SDS011;11504;43.334;21.918;2023-04-25T13:14:44;12.0;;;11.0;;
22673;SDS011;11504;43.334;21.918;2023-04-25T13:19:20;12.0;;;11.0;;
22673;SDS011;11504;43.334;21.918;2023-04-25T13:23:57;12.0;;;12.0;;
22673;SDS011;11504;43.334;21.918;2023-04-25T13:28:33;12.0;;;12.0;;
22673;SDS011;11504;43.334;21.918;2023-04-25T13:33:10;13.0;;;12.0;;
22673;SDS011;11504;43.334;21.918;2023-04-25T13:37:47;13.0;;;12.0;;
22673;SDS011;11504;43.334;21.918;2023-04-25T13:42:24;12.0;;;12.0;;
22673;SDS011;11504;43.334;21.918;2023-04-25T13:47:00;12.0;;;12.0;;
22673;SDS011;11504;43.334;21.918;2023-04-25T13:51:38;12.0;;;12.0;;
22673;SDS011;11504;43.334;21.918;2023-04-25T13:56:16;12.0;;;11.0;;
22673;SDS011;11504;43.334;21.918;2023-04-25T14:00:54;12.0;;;11.0;;
22673;SDS011;11504;43.334;21.918;2023-04-25T14:05:30;12.0;;;12.0;;
22673;SDS011;11504;43.334;21.918;2023-04-25T14:10:08;12.0;;;12.0;;
22673;SDS011;11504;43.334;21.918;2023-04-25T14:14:46;13.0;;;12.0;;
22673;SDS011;11504;43.334;21.918;2023-04-25T14:19:23;13.0;;;12.0;;
22673;SDS011;11504;43.334;21.918;2023-04-25T14:24:01;14.0;;;13.0;;
22673;SDS011;11504;43.334;21.918;2023-04-25T14:28:40;14.0;;;13.0;;
22673;SDS011;11504;43.334;21.918;2023-04-25T14:33:17;14.0;;;14.0;;
22673;SDS011;11504;43.334;21.918;2023-04-25T14:37:54;14.0;;;14.0;;
22673;SDS011;11504;43.334;21.918;2023-04-25T14:42:30;18.0;;;17.0;;
22673;SDS011;11504;43.334;21.918;2023-04-25T14:47:07;18.0;;;17.0;;
22673;SDS011;11504;43.334;21.918;2023-04-25T14:51:44;18.0;;;17.0;;
22673;SDS011;11504;43.334;21.918;2023-04-25T14:56:21;21.0;;;20.0;;
22673;SDS011;11504;43.334;21.918;2023-04-25T15:00:58;21.0;;;20.0;;
22673;SDS011;11504;43.334;21.918;2023-04-25T15:05:36;18.0;;;18.0;;
22673;SDS011;11504;43.334;21.918;2023-04-25T15:10:13;18.0;;;18.0;;
22673;SDS011;11504;43.334;21.918;2023-04-25T15:14:49;16.0;;;15.0;;
22673;SDS011;11504;43.334;21.918;2023-04-25T15:19:26;16.0;;;15.0;;
22673;SDS011;11504;43.334;21.918;2023-04-25T15:24:04;18.0;;;18.0;;
22673;SDS011;11504;43.334;21.918;2023-04-25T15:28:42;18.0;;;18.0;;
22673;SDS011;11504;43.334;21.918;2023-04-25T15:33:19;21.0;;;20.0;;
22673;SDS011;11504;43.334;21.918;2023-04-25T15:37:55;21.0;;;20.0;;
22673;SDS011;11504;43.334;21.918;2023-04-25T15:42:32;20.0;;;19.0;;
22673;SDS011;11504;43.334;21.918;2023-04-25T15:47:08;20.0;;;19.0;;
22673;SDS011;11504;43.334;21.918;2023-04-25T15:51:45;20.0;;;19.0;;
22673;SDS011;11504;43.334;21.918;2023-04-25T15:56:22;19.0;;;18.0;;
22673;SDS011;11504;43.334;21.918;2023-04-25T16:00:58;19.0;;;18.0;;
22673;SDS011;11504;43.334;21.918;2023-04-25T16:05:35;18.0;;;18.0;;
22673;SDS011;11504;43.334;21.918;2023-04-25T16:10:12;18.0;;;18.0;;
22673;SDS011;11504;43.334;21.918;2023-04-25T16:14:53;18.0;;;17.0;;
22673;SDS011;11504;43.334;21.918;2023-04-25T16:19:30;18.0;;;17.0;;
22673;SDS011;11504;43.334;21.918;2023-04-25T16:24:07;17.0;;;16.0;;
22673;SDS011;11504;43.334;21.918;2023-04-25T16:28:44;17.0;;;16.0;;
22673;SDS011;11504;43.334;21.918;2023-04-25T16:33:22;16.0;;;15.0;;
22673;SDS011;11504;43.334;21.918;2023-04-25T16:37:59;16.0;;;15.0;;
22673;SDS011;11504;43.334;21.918;2023-04-25T16:42:36;18.0;;;17.0;;
22673;SDS011;11504;43.334;21.918;2023-04-25T16:47:13;18.0;;;17.0;;
22673;SDS011;11504;43.334;21.918;2023-04-25T16:51:51;18.0;;;17.0;;
22673;SDS011;11504;43.334;21.918;2023-04-25T16:56:28;20.0;;;19.0;;
22673;SDS011;11504;43.334;21.918;2023-04-25T17:01:05;20.0;;;19.0;;
22673;SDS011;11504;43.334;21.918;2023-04-25T17:05:42;21.0;;;20.0;;
22673;SDS011;11504;43.334;21.918;2023-04-25T17:10:19;21.0;;;20.0;;
22673;SDS011;11504;43.334;21.918;2023-04-25T17:14:56;22.0;;;21.0;;
22673;SDS011;11504;43.334;21.918;2023-04-25T17:19:33;22.0;;;21.0;;
22673;SDS011;11504;43.334;21.918;2023-04-25T17:24:09;22.0;;;20.0;;
22673;SDS011;11504;43.334;21.918;2023-04-25T17:28:46;22.0;;;20.0;;
22673;SDS011;11504;43.334;21.918;2023-04-25T17:33:23;21.0;;;20.0;;
22673;SDS011;11504;43.334;21.918;2023-04-25T17:37:59;21.0;;;20.0;;
22673;SDS011;11504;43.334;21.918;2023-04-25T17:42:36;21.0;;;20.0;;
22673;SDS011;11504;43.334;21.918;2023-04-25T17:47:15;21.0;;;20.0;;
22673;SDS011;11504;43.334;21.918;2023-04-25T17:51:52;21.0;;;20.0;;
22673;SDS011;11504;43.334;21.918;2023-04-25T17:56:29;21.0;;;20.0;;
22673;SDS011;11504;43.334;21.918;2023-04-25T18:01:05;21.0;;;20.0;;
22673;SDS011;11504;43.334;21.918;2023-04-25T18:05:42;24.0;;;24.0;;
22673;SDS011;11504;43.334;21.918;2023-04-25T18:10:19;24.0;;;24.0;;
22673;SDS011;11504;43.334;21.918;2023-04-25T18:14:56;28.0;;;27.0;;
22673;SDS011;11504;43.334;21.918;2023-04-25T18:19:33;28.0;;;27.0;;
22673;SDS011;11504;43.334;21.918;2023-04-25T18:24:09;36.0;;;34.0;;
22673;SDS011;11504;43.334;21.918;2023-04-25T18:28:47;36.0;;;34.0;;
22673;SDS011;11504;43.334;21.918;2023-04-25T18:33:24;43.0;;;40.0;;
22673;SDS011;11504;43.334;21.918;2023-04-25T18:38:00;43.0;;;40.0;;
22673;SDS011;11504;43.334;21.918;2023-04-25T18:42:36;42.0;;;40.0;;
22673;SDS011;11504;43.334;21.918;2023-04-25T18:47:13;42.0;;;40.0;;
22673;SDS011;11504;43.334;21.918;2023-04-25T18:51:50;42.0;;;40.0;;
22673;SDS011;11504;43.334;21.918;2023-04-25T18:56:27;42.0;;;40.0;;
22673;SDS011;11504;43.334;21.918;2023-04-25T19:01:04;42.0;;;40.0;;
22673;SDS011;11504;43.334;21.918;2023-04-25T19:05:41;44.0;;;42.0;;
22673;SDS011;11504;43.334;21.918;2023-04-25T19:10:18;44.0;;;42.0;;
22673;SDS011;11504;43.334;21.918;2023-04-25T19:14:55;46.0;;;44.0;;
22673;SDS011;11504;43.334;21.918;2023-04-25T19:19:31;46.0;;;44.0;;
22673;SDS011;11504;43.334;21.918;2023-04-25T19:24:08;38.0;;;36.0;;
22673;SDS011;11504;43.334;21.918;2023-04-25T19:28:46;38.0;;;36.0;;
22673;SDS011;11504;43.334;21.918;2023-04-25T19:33:44;30.0;;;28.0;;
22673;SDS011;11504;43.334;21.918;2023-04-25T19:38:21;30.0;;;28.0;;
22673;SDS011;11504;43.334;21.918;2023-04-25T19:42:58;28.0;;;27.0;;
22673;SDS011;11504;43.334;21.918;2023-04-25T19:47:35;28.0;;;27.0;;
22673;SDS011;11504;43.334;21.918;2023-04-25T19:52:12;28.0;;;27.0;;
22673;SDS011;11504;43.334;21.918;2023-04-25T19:56:50;27.0;;;26.0;;
22673;SDS011;11504;43.334;21.918;2023-04-25T20:01:26;27.0;;;26.0;;
22673;SDS011;11504;43.334;21.918;2023-04-25T20:06:03;28.0;;;27.0;;
22673;SDS011;11504;43.334;21.918;2023-04-25T20:10:39;28.0;;;27.0;;
22673;SDS011;11504;43.334;21.918;2023-04-25T20:15:17;30.0;;;28.0;;
22673;SDS011;11504;43.334;21.918;2023-04-25T20:19:53;30.0;;;28.0;;
22673;SDS011;11504;43.334;21.918;2023-04-25T20:24:29;34.0;;;32.0;;
22673;SDS011;11504;43.334;21.918;2023-04-25T20:29:06;34.0;;;32.0;;
22673;SDS011;11504;43.334;21.918;2023-04-25T20:33:43;37.0;;;35.0;;
22673;SDS011;11504;43.334;21.918;2023-04-25T20:38:21;37.0;;;35.0;;
22673;SDS011;11504;43.334;21.918;2023-04-25T20:42:58;38.0;;;34.0;;
22673;SDS011;11504;43.334;21.918;2023-04-25T20:47:34;38.0;;;34.0;;
22673;SDS011;11504;43.334;21.918;2023-04-25T20:52:11;38.0;;;34.0;;
22673;SDS011;11504;43.334;21.918;2023-04-25T20:56:48;39.0;;;34.0;;
22673;SDS011;11504;43.334;21.918;2023-04-25T21:01:25;39.0;;;34.0;;
22673;SDS011;11504;43.334;21.918;2023-04-25T21:06:02;32.0;;;28.0;;
22673;SDS011;11504;43.334;21.918;2023-04-25T21:10:40;32.0;;;28.0;;
22673;SDS011;11504;43.334;21.918;2023-04-25T21:15:17;24.0;;;23.0;;
22673;SDS011;11504;43.334;21.918;2023-04-25T21:19:54;24.0;;;23.0;;
22673;SDS011;11504;43.334;21.918;2023-04-25T21:24:30;24.0;;;23.0;;
22673;SDS011;11504;43.334;21.918;2023-04-25T21:29:07;24.0;;;23.0;;
22673;SDS011;11504;43.334;21.918;2023-04-25T21:33:43;24.0;;;23.0;;
22673;SDS011;11504;43.334;21.918;2023-04-25T21:38:20;24.0;;;23.0;;
22673;SDS011;11504;43.334;21.918;2023-04-25T21:42:56;28.0;;;26.0;;
22673;SDS011;11504;43.334;21.918;2023-04-25T21:47:34;28.0;;;26.0;;
22673;SDS011;11504;43.334;21.918;2023-04-25T21:52:11;28.0;;;26.0;;
22673;SDS011;11504;43.334;21.918;2023-04-25T21:56:48;31.0;;;29.0;;
22673;SDS011;11504;43.334;21.918;2023-04-25T22:01:25;31.0;;;29.0;;
22673;SDS011;11504;43.334;21.918;2023-04-25T22:06:03;32.0;;;29.0;;
22673;SDS011;11504;43.334;21.918;2023-04-25T22:10:41;32.0;;;29.0;;
22673;SDS011;11504;43.334;21.918;2023-04-25T22:15:19;32.0;;;29.0;;
22673;SDS011;11504;43.334;21.918;2023-04-25T22:19:57;32.0;;;29.0;;
22673;SDS011;11504;43.334;21.918;2023-04-25T22:24:36;30.0;;;27.0;;
22673;SDS011;11504;43.334;21.918;2023-04-25T22:29:13;30.0;;;27.0;;
22673;SDS011;11504;43.334;21.918;2023-04-25T22:33:50;27.0;;;25.0;;
22673;SDS011;11504;43.334;21.918;2023-04-25T22:38:27;27.0;;;25.0;;
22673;SDS011;11504;43.334;21.918;2023-04-25T22:43:03;26.0;;;24.0;;
22673;SDS011;11504;43.334;21.918;2023-04-25T22:47:40;26.0;;;24.0;;
22673;SDS011;11504;43.334;21.918;2023-04-25T22:52:16;26.0;;;24.0;;
22673;SDS011;11504;43.334;21.918;2023-04-25T22:56:53;25.0;;;24.0;;
22673;SDS011;11504;43.334;21.918;2023-04-25T23:01:29;25.0;;;24.0;;
22673;SDS011;11504;43.334;21.918;2023-04-25T23:06:05;22.0;;;22.0;;
22673;SDS011;11504;43.334;21.918;2023-04-25T23:10:42;22.0;;;22.0;;
22673;SDS011;11504;43.334;21.918;2023-04-25T23:15:19;20.0;;;19.0;;
22673;SDS011;11504;43.334;21.918;2023-04-25T23:19:56;20.0;;;19.0;;
22673;SDS011;11504;43.334;21.918;2023-04-25T23:24:35;22.0;;;21.0;;
22673;SDS011;11504;43.334;21.918;2023-04-25T23:29:11;22.0;;;21.0;;
22673;SDS011;11504;43.334;21.918;2023-04-25T23:33:48;24.0;;;23.0;;
22673;SDS011;11504;43.334;21.918;2023-04-25T23:38:25;24.0;;;23.0;;
22673;SDS011;11504;43.334;21.918;2023-04-25T23:43:02;20.0;;;20.0;;
22673;SDS011;11504;43.334;21.918;2023-04-25T23:47:38;20.0;;;20.0;;
22673;SDS011;11504;43.334;21.918;2023-04-25T23:52:15;20.0;;;20.0;;
22673;SDS011;11504;43.334;21.918;2023-04-25T23:56:51;17.0;;;16.0;;
